Date,TemperatureHighF,TemperatureAvgF,TemperatureLowF,DewpointHighF,DewpointAvgF,DewpointLowF,HumidityHigh,HumidityAvg,HumidityLow,PressureMaxIn,PressureMinIn,WindSpeedMaxMPH,WindSpeedAvgMPH,GustSpeedMaxMPH,PrecipitationSumIn
2013-1-12,73,59,48,64,56,48,100,90,71,30.19,30.10,3,0,3,0.00
2013-1-13,73,65,57,62,59,57,100,84,63,30.16,30.08,6,1,6,0.01
2013-1-14,65,63,60,65,60,59,100,92,85,30.16,30.10,2,0,2,0.19
2013-1-15,63,48,43,62,47,42,100,99,96,30.22,30.07,3,1,3,0.09
2013-1-16,50,46,42,50,45,42,100,99,97,30.08,30.00,3,0,3,0.20
2013-1-17,51,41,33,51,41,33,100,99,95,30.18,29.82,13,3,13,2.15
2013-1-18,46,37,31,34,28,22,100,71,38,30.52,30.17,4,1,4,0.02
2013-1-19,54,42,26,31,27,20,92,59,28,30.50,30.18,4,0,4,0.00
2013-1-20,62,48,36,36,31,27,72,54,28,30.17,30.03,6,1,6,0.00
2013-1-21,60,44,30,36,26,14,87,54,26,30.10,29.93,11,1,11,0.00
2013-1-22,42,36,28,17,7,-2,49,30,20,30.27,30.00,8,2,8,0.00
2013-1-23,44,34,22,28,12,0,65,43,21,30.36,30.06,8,1,8,0.00
2013-1-24,47,36,26,33,14,-4,79,45,21,30.50,29.98,8,2,8,0.00
2013-1-25,30,25,21,26,14,2,86,64,36,30.51,30.13,3,0,4,0.05
2013-1-26,45,33,25,35,28,22,100,83,56,30.37,30.10,14,0,14,0.01
2013-1-27,44,34,26,29,25,20,93,71,51,30.57,30.35,5,1,5,0.00
2013-1-28,50,43,34,48,36,28,91,77,62,30.48,30.26,21,1,21,0.04
2013-1-29,73,58,45,58,52,44,100,80,57,30.26,30.06,6,1,6,0.01
2013-1-30,75,66,52,64,60,50,100,82,56,30.07,29.46,11,3,11,0.67
2013-1-31,51,44,36,50,27,13,94,53,26,30.04,29.57,11,3,11,0.00
2013-2-1,41,37,26,27,10,-2,58,34,20,30.37,29.92,11,3,11,0.00
2013-2-2,46,35,23,34,13,3,75,42,21,30.38,30.05,5,1,8,0.00
2013-2-3,53,43,35,34,27,20,86,55,29,30.05,29.88,8,2,8,0.00
2013-2-4,52,37,29,27,21,18,69,54,29,30.16,30.01,4,1,4,0.00
2013-2-5,64,50,37,39,33,26,70,54,37,30.02,29.90,7,1,7,0.00
2013-2-6,63,47,34,39,29,18,92,55,20,30.25,30.00,5,1,5,0.00
2013-2-7,46,41,39,40,34,25,100,79,49,30.28,29.99,6,2,6,0.58
2013-2-8,59,46,37,47,38,27,99,76,44,30.11,29.88,8,3,8,0.09
2013-2-9,56,43,29,27,21,13,82,47,19,30.35,30.11,4,1,4,0.00
2013-2-10,56,44,32,48,27,17,100,56,22,30.46,30.18,6,1,6,0.13
2013-2-11,61,56,48,60,55,47,100,96,90,30.18,29.97,8,2,8,0.18
2013-2-12,61,52,43,51,38,23,100,66,24,30.14,29.93,5,1,5,0.05
2013-2-13,48,46,41,48,44,34,100,94,72,29.96,29.69,5,1,5,0.09
2013-2-14,52,41,31,37,33,29,94,73,46,30.08,29.89,6,0,6,0.00
2013-2-15,61,47,32,40,32,26,95,62,27,30.12,29.95,6,1,6,0.00
2013-2-16,46,36,27,36,30,20,95,80,63,30.01,29.85,11,1,11,0.06
2013-2-17,40,31,24,20,11,2,76,46,23,30.26,30.00,9,1,9,0.00
2013-2-18,54,39,22,27,20,12,69,48,26,30.38,30.23,7,1,7,0.00
2013-2-19,47,41,36,44,35,23,100,81,54,30.24,29.91,6,1,6,0.25
2013-2-20,54,40,29,26,17,10,67,44,18,30.12,30.02,8,1,8,0.00
2013-2-21,56,37,27,23,16,10,66,44,19,30.24,30.11,4,1,4,0.00
2013-2-22,43,38,36,37,36,32,97,92,66,30.32,30.13,5,1,5,0.33
2013-2-23,43,39,36,43,39,35,100,98,94,30.16,29.84,4,1,4,0.51
2013-2-24,62,50,41,45,36,22,100,66,22,30.04,29.83,5,1,5,0.00
2013-2-25,43,40,37,31,26,24,73,59,52,30.19,30.03,5,2,5,0.00
2013-2-26,45,37,33,44,34,23,100,89,57,30.10,29.61,5,2,5,0.84
2013-2-27,57,47,36,44,38,35,100,75,47,29.84,29.67,5,1,5,0.01
2013-2-28,51,42,34,38,28,23,85,58,36,29.91,29.74,7,2,7,0.00
2013-3-1,48,40,29,31,27,23,82,62,45,29.94,29.88,6,1,6,0.00
2013-3-2,47,39,31,36,29,19,86,68,48,29.97,29.85,7,1,7,0.01
2013-3-3,45,35,26,20,16,11,67,46,26,30.03,29.90,8,2,8,0.00
2013-3-4,52,38,25,20,13,8,62,39,21,30.14,30.02,6,1,6,0.01
2013-3-5,51,46,39,47,38,23,100,75,48,30.08,29.64,7,1,7,0.27
2013-3-6,49,42,35,43,26,17,100,55,35,30.08,29.64,11,4,11,0.01
2013-3-7,53,41,29,29,25,20,78,55,32,30.28,30.12,8,2,8,0.00
2013-3-8,55,43,29,26,21,16,69,44,21,30.33,30.22,12,2,12,0.00
2013-3-9,62,48,32,33,28,23,72,48,24,30.36,30.25,5,1,5,0.00
2013-3-10,68,53,37,39,35,31,86,55,29,30.31,30.20,6,1,6,0.00
2013-3-11,70,56,42,56,42,25,95,60,45,30.21,29.90,8,1,8,0.09
2013-3-12,58,58,56,58,57,55,100,99,95,29.90,29.78,5,2,5,0.74
2013-3-13,58,46,36,38,25,13,83,48,22,30.18,29.99,11,3,11,0.00
2013-3-14,53,41,30,22,16,11,57,37,20,30.29,30.16,9,2,9,0.00
2013-3-15,65,49,31,40,28,19,70,46,29,30.21,29.92,6,1,6,0.01
2013-3-16,79,66,54,48,44,39,61,47,32,29.92,29.75,8,2,8,0.00
2013-3-17,68,58,53,48,43,41,68,57,45,29.99,29.89,4,0,4,0.00
2013-3-18,68,42,39,47,41,39,100,96,47,30.17,29.89,9,2,9,0.39
2013-3-19,65,51,40,48,30,13,100,57,16,30.06,29.86,9,3,9,0.01
2013-3-20,57,50,43,26,13,5,41,24,19,30.13,29.81,6,2,6,0.00
2013-3-21,47,40,32,28,10,5,54,30,20,30.00,29.81,10,3,10,0.00
2013-3-22,52,36,25,24,14,6,59,41,23,30.10,29.99,5,1,5,0.00
2013-3-23,54,46,40,42,36,24,91,69,42,30.08,29.92,4,0,4,0.01
2013-3-24,43,40,38,42,40,37,100,98,91,29.96,29.58,8,2,8,0.66
2013-3-25,49,41,36,40,29,17,99,68,30,29.91,29.59,12,2,12,0.05
2013-3-26,48,40,31,28,24,22,75,54,38,30.18,29.88,8,2,8,0.00
2013-3-27,52,42,30,31,22,15,78,49,23,30.26,30.17,10,2,10,0.00
2013-3-28,57,44,31,25,20,14,67,41,20,30.31,30.20,8,2,8,0.00
2013-3-29,63,49,30,37,26,20,78,45,20,30.34,30.19,8,1,8,0.00
2013-3-30,67,55,46,50,43,36,100,67,41,30.24,30.08,6,1,6,0.09
2013-3-31,71,56,50,58,51,45,100,86,56,30.09,29.84,6,1,6,0.25
2013-4-1,73,62,54,56,44,34,100,57,24,29.97,29.84,8,2,8,0.04
2013-4-2,66,54,41,38,31,17,82,46,17,30.18,29.98,6,1,6,0.00
2013-4-3,62,53,44,30,20,11,44,27,19,30.31,30.14,8,2,8,0.00
2013-4-4,50,42,36,40,31,16,99,69,27,30.30,29.98,8,2,8,0.85
2013-4-5,66,48,36,47,40,35,100,78,38,30.06,29.92,8,2,8,0.01
2013-4-6,70,55,40,42,37,30,93,56,23,30.25,30.06,3,1,3,0.00
2013-4-7,73,59,43,50,43,35,79,57,32,30.27,30.13,7,1,7,0.00
2013-4-8,81,69,56,58,54,50,94,63,38,30.19,30.09,8,1,8,0.00
2013-4-9,86,76,56,61,58,52,92,55,39,30.22,30.10,7,1,7,0.00
2013-4-10,87,74,62,63,59,56,91,62,38,30.14,29.99,6,1,6,0.00
2013-4-11,84,72,62,68,62,58,97,75,48,30.02,29.79,5,1,5,0.09
2013-4-12,83,73,63,69,58,37,100,66,29,29.85,29.67,9,2,9,0.33
2013-4-13,77,64,46,47,41,34,88,49,22,30.04,29.85,5,1,5,0.00
2013-4-14,80,64,45,54,45,39,94,55,24,30.11,30.01,14,1,14,0.01
2013-4-15,74,64,58,62,59,51,100,83,62,30.22,30.00,24,1,24,0.02
2013-4-16,80,68,58,65,60,58,100,79,51,30.31,30.21,4,0,4,0.00
2013-4-17,86,71,59,66,61,58,100,72,39,30.27,30.13,4,1,4,0.00
2013-4-18,84,73,64,65,62,58,89,70,47,30.19,30.03,6,1,6,0.00
2013-4-19,81,70,67,69,66,16,99,88,61,30.01,29.77,6,2,8,0.27
2013-4-20,66,55,45,55,37,27,95,54,26,30.27,29.92,5,1,5,0.00
2013-4-21,69,55,42,44,40,36,93,61,36,30.45,30.27,6,1,6,0.00
2013-4-22,70,54,42,42,34,22,83,52,17,30.43,30.24,21,1,21,0.00
2013-4-23,76,60,52,54,48,41,87,66,46,30.29,30.14,4,1,4,0.00
2013-4-24,78,72,66,59,57,55,78,59,47,30.10,30.03,5,2,7,0.00
2013-4-25,78,64,52,59,43,28,93,53,20,30.27,30.06,5,1,5,0.00
2013-4-26,80,62,46,44,38,31,76,46,18,30.44,30.28,4,1,4,0.00
2013-4-28,58,56,55,58,56,54,99,99,97,30.24,30.07,4,0,5,1.45
2013-4-29,76,63,56,67,60,56,100,92,65,30.08,29.96,4,0,4,0.31
2013-4-30,75,64,58,66,61,57,100,91,67,30.20,29.99,4,0,4,0.00
2013-5-1,65,59,54,59,57,53,100,92,78,30.31,30.19,7,1,7,0.00
2013-5-2,63,59,56,59,57,56,100,95,86,30.33,30.25,4,1,4,0.05
2013-5-3,69,61,54,57,54,47,96,79,60,30.25,30.13,5,1,5,0.00
2013-5-4,68,57,50,53,49,44,88,75,56,30.16,30.03,7,2,7,0.00
2013-5-5,57,54,52,54,51,49,100,91,83,30.06,29.93,7,2,7,0.30
2013-5-6,78,63,54,67,56,48,100,82,45,29.93,29.83,5,1,5,0.59
2013-5-7,79,60,49,55,51,47,100,76,35,29.98,29.88,5,1,5,0.09
2013-5-8,78,64,52,62,57,52,100,79,49,30.05,29.94,6,0,6,0.00
2013-5-9,90,70,54,62,57,53,100,68,32,30.11,30.02,4,1,4,0.00
2013-5-10,89,73,58,66,60,57,97,67,39,30.10,29.98,6,1,6,0.00
2013-5-11,86,73,64,69,62,59,93,71,45,30.00,29.84,7,1,7,0.06
2013-5-12,80,66,55,62,51,36,100,62,33,30.07,29.87,5,1,5,0.01
2013-5-13,76,59,44,43,37,27,85,48,20,30.20,30.07,5,1,5,0.00
2013-5-14,80,62,43,45,40,32,87,49,22,30.28,30.10,5,1,5,0.00
2013-5-15,97,76,57,64,57,45,84,53,32,30.10,29.96,5,1,5,0.00
2013-5-16,88,76,63,64,60,55,86,60,35,30.06,29.96,7,1,7,0.00
2013-5-17,95,77,64,68,63,58,91,64,37,30.12,30.03,5,1,5,0.00
2013-5-18,77,71,66,68,65,60,97,82,64,30.18,30.09,5,0,5,0.01
2013-5-19,80,69,65,73,68,65,100,96,76,30.16,30.06,4,0,4,0.45
2013-5-20,90,73,67,73,69,66,100,88,48,30.16,30.05,3,0,3,0.04
2013-5-21,90,70,64,74,68,63,100,93,56,30.09,29.99,8,0,8,1.41
2013-5-22,90,75,66,73,67,62,100,79,49,30.06,29.93,8,1,8,0.05
2013-5-23,87,71,65,70,66,63,100,88,54,30.01,29.86,4,0,4,0.31
2013-5-24,65,61,59,65,61,58,100,99,97,29.97,29.90,1,0,1,0.00
2013-5-25,86,64,45,50,45,38,90,54,21,30.33,30.17,5,0,5,0.01
2013-5-26,84,66,54,54,49,43,88,56,26,30.31,30.19,4,0,4,0.00
2013-5-27,92,72,54,61,56,52,95,63,32,30.30,30.17,4,1,4,0.00
2013-5-28,92,77,65,67,63,60,94,66,40,30.28,30.17,5,1,5,0.00
2013-5-29,95,78,64,66,63,61,92,64,36,30.28,30.19,4,1,4,0.00
2013-5-30,94,77,63,67,64,60,100,67,35,30.32,30.21,5,1,5,0.00
2013-5-31,94,78,66,70,67,63,100,71,40,30.27,30.14,5,1,5,0.00
2013-6-1,94,80,68,70,67,63,95,67,42,30.17,30.06,4,1,4,0.08
2013-6-2,90,77,69,72,68,65,100,76,48,30.10,29.95,6,1,6,0.17
2013-6-3,71,69,68,71,68,67,100,99,99,29.97,29.92,4,0,4,2.46
2013-6-4,88,75,67,70,68,67,100,81,54,30.10,29.98,4,1,4,0.01
2013-6-5,84,74,68,71,68,66,100,84,62,30.14,30.02,4,1,4,0.15
2013-6-6,76,71,68,75,70,68,100,99,96,30.04,29.86,4,0,4,1.57
2013-6-7,82,71,67,77,70,66,100,96,75,29.90,29.67,7,1,7,0.78
2013-6-8,92,74,66,74,69,17,100,85,15,30.14,29.87,4,0,4,0.02
2013-6-9,92,76,67,74,70,67,100,84,48,30.18,30.09,4,0,4,0.06
2013-6-10,86,74,70,76,71,68,100,93,66,30.12,29.94,8,1,8,0.67
2013-6-11,90,76,68,74,68,63,100,79,44,30.04,29.96,4,1,4,0.13
2013-6-12,97,80,66,76,71,66,100,75,46,30.04,29.92,5,1,5,0.00
2013-6-13,99,81,68,75,72,66,100,78,38,29.93,29.69,12,1,12,0.48
2013-6-14,88,73,62,68,60,55,99,69,35,30.07,29.81,5,1,5,0.01
2013-6-15,90,74,60,65,62,59,97,70,40,30.16,30.07,4,1,4,0.00
2013-6-16,94,78,68,71,66,61,84,69,43,30.16,30.05,5,1,5,0.00
2013-6-17,93,78,72,73,70,67,97,77,48,30.09,29.98,6,1,6,0.06
2013-6-18,89,76,71,74,71,70,100,87,55,30.01,29.83,8,1,8,0.24
2013-6-19,88,76,68,70,68,63,100,81,48,30.10,29.93,3,0,3,0.02
2013-6-20,90,75,66,69,67,63,100,77,44,30.26,30.14,4,1,4,0.00
2013-6-21,90,74,63,67,63,60,94,71,41,30.29,30.19,5,1,5,0.00
2013-6-22,92,75,64,71,67,61,94,77,48,30.26,30.16,4,1,4,0.01
2013-6-23,92,78,69,76,71,68,100,80,49,30.24,30.17,4,0,4,0.00
2013-6-24,88,77,71,80,72,16,100,86,12,30.25,30.14,8,0,8,0.53
2013-6-25,97,82,71,75,72,70,97,76,44,30.17,30.05,4,1,4,0.00
2013-6-26,98,79,70,75,71,66,100,80,43,30.07,29.95,12,1,12,0.37
2013-6-27,95,79,70,77,73,70,100,84,51,29.98,29.78,4,1,4,0.04
2013-6-28,99,80,69,76,72,69,100,80,43,29.80,29.66,8,1,8,3.18
2013-6-29,94,78,70,78,72,69,100,83,49,29.76,29.66,4,0,4,0.01
2013-6-30,88,78,70,75,73,70,100,86,63,29.87,29.74,4,0,4,0.53
2013-7-1,87,74,67,75,71,67,100,90,66,30.01,29.85,4,0,4,0.07
2013-7-2,80,73,71,74,71,70,100,94,79,30.17,30.00,5,1,5,0.28
2013-7-3,82,75,72,76,74,71,100,95,82,30.25,30.16,3,0,3,0.15
2013-7-4,95,80,73,78,74,71,100,84,49,30.27,30.18,8,0,8,1.23
2013-7-5,92,79,74,78,74,72,100,86,56,30.28,30.21,5,0,5,0.09
2013-7-6,92,77,71,78,73,71,100,89,55,30.27,30.15,3,0,5,0.07
2013-7-7,91,80,73,80,74,72,100,85,59,30.22,30.10,4,0,4,0.38
2013-7-8,93,78,72,80,74,71,100,90,55,30.23,30.14,9,0,9,0.35
2013-7-9,97,81,72,78,74,72,100,81,45,30.20,30.08,12,1,15,0.00
2013-7-10,96,78,70,76,73,70,100,85,49,30.15,29.99,18,2,22,0.61
2013-7-11,80,74,71,78,73,71,100,97,92,30.02,29.93,9,0,9,0.52
2013-7-12,85,75,70,75,72,70,100,91,67,30.00,29.91,73,1,89,0.02
2013-7-13,83,74,70,74,71,68,100,92,73,30.14,30.03,12,1,12,0.25
2013-7-14,96,78,72,76,73,71,100,87,51,30.32,30.13,39,3,39,1.35
2013-7-15,95,78,70,77,73,69,100,85,50,30.35,30.29,9,1,9,0.04
2013-7-16,101,82,70,77,72,70,100,76,41,30.32,30.24,7,0,7,0.00
2013-7-17,96,79,72,78,74,69,100,87,53,30.26,30.16,21,1,21,0.13
2013-7-18,96,80,70,80,74,71,100,84,54,30.20,30.09,9,0,9,0.00
2013-7-19,97,84,74,78,75,73,100,78,48,30.16,30.03,11,2,11,0.00
2013-7-20,94,81,74,77,74,73,96,82,53,30.08,29.97,16,2,16,0.04
2013-7-21,97,79,71,76,73,71,100,85,48,30.05,29.95,11,1,11,0.84
2013-7-22,92,78,71,76,73,70,100,86,56,30.04,29.88,30,1,30,0.23
2013-7-23,95,81,72,75,72,70,96,76,46,29.89,29.82,11,3,11,0.16
2013-7-24,98,81,70,75,72,68,100,77,42,29.93,29.79,18,2,18,1.01
2013-7-25,89,76,68,72,70,68,100,84,54,30.05,29.86,15,3,15,0.16
2013-7-26,93,77,68,72,70,66,100,80,46,30.14,30.04,12,1,12,0.01
2013-7-27,81,72,69,75,71,68,100,95,79,30.07,29.97,39,1,39,1.23
2013-7-28,93,78,69,74,72,69,100,84,51,30.04,29.96,15,3,15,0.04
2013-7-29,91,78,68,74,70,66,100,80,46,30.19,30.03,28,1,28,0.41
2013-7-30,93,77,67,71,68,63,100,77,44,30.25,30.17,18,1,18,0.01
2013-7-31,86,75,71,75,71,69,100,88,65,30.19,30.03,15,1,15,0.23
2013-8-1,93,80,71,76,73,71,100,81,51,30.03,29.91,9,1,9,0.03
2013-8-2,96,80,71,74,71,68,100,78,44,30.08,29.96,18,1,18,0.00
2013-8-3,94,81,74,78,73,70,100,79,49,30.06,29.98,18,2,18,0.00
2013-8-4,93,79,70,72,68,64,95,73,43,30.06,29.96,18,3,18,0.00
2013-8-5,90,78,69,71,67,65,91,73,46,30.12,30.02,18,2,18,0.03
2013-8-6,82,72,68,72,69,66,100,90,71,30.11,30.02,18,1,18,0.23
2013-8-7,92,78,71,74,70,65,97,80,48,30.13,30.06,18,1,18,0.01
2013-8-8,93,78,73,78,74,70,95,86,57,30.12,30.04,15,1,15,0.03
2013-8-9,98,82,74,78,75,72,100,81,50,30.11,30.04,22,3,22,0.00
2013-8-10,100,82,74,79,74,70,97,80,46,30.15,30.07,33,3,33,0.00
2013-8-11,99,82,72,77,73,70,97,77,43,30.17,30.07,18,2,18,0.00
2013-8-12,98,82,73,77,74,71,100,80,43,30.11,30.00,15,1,15,0.06
2013-8-13,95,80,71,77,73,70,100,81,50,30.02,29.85,22,4,22,0.01
2013-8-14,82,74,66,72,65,60,94,75,51,30.12,29.91,15,2,15,0.00
2013-8-15,81,68,62,62,60,56,93,75,45,30.20,30.11,18,2,18,0.00
2013-8-16,72,65,62,66,61,58,97,86,71,30.21,30.12,15,1,15,0.06
2013-8-17,67,64,61,67,63,61,100,98,91,30.22,30.17,18,2,18,1.11
2013-8-18,83,72,65,74,69,65,100,91,71,30.26,30.17,12,1,12,0.01
2013-8-19,75,71,68,74,70,67,100,98,90,30.22,30.13,12,0,12,1.62
2013-8-20,82,73,65,75,70,65,100,92,72,30.24,30.13,6,0,6,0.00
2013-8-21,87,74,70,79,73,70,100,96,71,30.25,30.14,6,0,6,0.72
2013-8-22,91,76,70,77,72,69,100,88,55,30.20,30.05,12,1,12,0.01
2013-8-23,91,76,69,77,70,68,100,84,50,30.12,30.01,22,1,22,0.00
2013-8-24,83,73,65,69,64,60,96,76,49,30.32,30.11,18,3,18,0.00
2013-8-25,83,71,61,69,62,60,100,77,49,30.41,30.32,37,2,37,0.09
2013-8-26,85,71,58,67,62,57,100,77,46,30.36,30.16,9,1,9,0.01
2013-8-27,89,76,65,73,68,62,95,78,52,30.18,30.03,12,1,12,0.00
2013-8-28,90,79,69,76,72,69,100,79,52,30.06,29.96,12,1,12,0.00
2013-8-29,93,82,74,77,73,71,92,76,53,30.03,29.93,24,2,24,0.00
2013-8-30,88,78,71,72,69,62,96,75,44,30.09,29.98,15,1,15,0.00
2013-8-31,90,78,69,76,72,67,96,82,56,30.01,29.91,12,2,12,0.00
2013-9-1,92,82,70,76,73,69,100,77,56,29.95,29.84,30,5,30,0.16
2013-9-2,88,77,70,76,73,70,100,88,63,29.95,29.85,9,1,9,0.01
2013-9-3,89,79,73,78,72,67,100,80,51,30.00,29.84,15,2,15,0.00
2013-9-4,86,76,66,69,66,62,93,72,47,30.13,30.00,12,1,12,0.00
2013-9-5,87,75,65,70,66,62,100,75,48,30.17,30.08,12,1,12,0.03
2013-9-6,84,75,65,64,62,59,92,67,47,30.23,30.11,18,2,18,0.03
2013-9-7,85,72,62,68,64,59,94,76,51,30.17,30.02,18,2,18,0.00
2013-9-8,89,76,65,76,66,64,100,75,44,30.04,29.96,12,1,12,0.00
2013-9-9,90,78,67,75,68,64,100,75,43,30.19,30.03,22,1,22,0.01
2013-9-10,92,78,68,76,69,67,100,77,45,30.27,30.18,12,1,12,0.01
2013-9-11,91,79,68,74,68,66,96,73,45,30.25,30.11,15,2,15,0.01
2013-9-12,83,73,71,72,68,66,92,82,58,30.13,29.88,6,0,6,0.00
2013-9-13,93,79,68,77,65,54,92,66,40,30.04,29.83,18,3,24,0.28
2013-9-14,77,67,58,59,55,49,85,65,48,30.20,30.00,22,4,22,0.04
2013-9-15,81,67,57,67,61,56,95,82,58,30.31,30.20,12,1,12,0.00
2013-9-16,87,78,69,71,65,60,96,68,44,30.25,30.14,15,3,15,0.00
2013-9-17,78,70,64,64,58,55,79,66,49,30.40,30.25,18,4,18,0.01
2013-9-18,75,65,58,58,55,51,87,71,49,30.39,30.26,12,2,18,0.00
2013-9-19,79,68,59,65,60,56,94,77,53,30.29,30.17,12,1,39,0.00
2013-9-20,86,73,63,70,66,61,95,79,48,30.18,30.02,9,1,9,0.03
2013-9-21,77,71,65,71,68,64,100,92,77,30.03,29.79,22,3,22,0.91
2013-9-22,77,67,59,64,59,54,100,80,47,30.00,29.79,22,5,22,0.24
2013-9-23,76,65,57,60,57,54,97,78,53,30.16,29.99,18,2,18,0.03
2013-9-24,79,67,59,64,59,57,97,79,51,30.17,30.03,15,1,15,0.02
2013-9-25,71,64,61,66,62,59,100,91,73,30.04,29.96,9,0,9,0.17
2013-9-26,76,66,59,66,59,55,100,81,51,30.14,29.97,22,2,22,0.01
2013-9-27,76,64,54,62,56,54,100,77,50,30.26,30.12,18,3,18,0.00
2013-9-28,72,62,55,62,55,53,100,79,53,30.34,30.24,15,3,15,0.01
2013-9-29,72,63,56,59,56,54,96,80,56,30.25,30.12,15,2,15,0.00
2013-9-30,76,63,52,61,56,52,100,81,51,30.19,30.10,12,1,12,0.01
2013-10-1,80,67,55,66,59,55,100,78,47,30.23,30.13,15,1,15,0.01
2013-10-2,83,69,58,67,61,57,100,79,46,30.26,30.16,12,0,12,0.00
2013-10-3,85,69,62,68,63,60,100,84,46,30.24,30.17,24,1,24,0.00
2013-10-4,86,69,61,70,63,61,100,83,50,30.24,30.17,15,1,15,0.03
2013-10-5,87,74,62,73,65,62,100,78,47,30.22,30.12,9,1,15,0.03
2013-10-6,84,73,64,69,65,63,97,77,54,30.15,29.99,15,1,15,0.06
2013-10-7,76,71,65,74,68,56,100,90,70,30.08,29.91,15,2,15,0.41
2013-10-8,66,62,59,55,51,47,73,66,56,30.29,30.09,28,6,28,0.03
2013-10-9,70,61,51,54,50,46,87,68,53,30.30,30.20,24,6,24,0.03
2013-10-10,71,63,54,62,56,49,86,78,69,30.21,30.05,22,4,22,0.01
2013-10-11,78,69,60,63,60,58,94,75,53,30.08,30.02,22,2,22,0.00
2013-10-12,74,68,60,66,62,60,100,83,66,30.17,30.05,9,1,15,0.01
2013-10-13,69,66,63,64,63,62,96,91,82,30.30,30.17,18,3,18,0.03
2013-10-14,69,64,60,63,61,58,100,90,78,30.32,30.25,15,3,15,0.04
2013-10-15,74,64,58,59,56,52,95,76,48,30.29,30.15,22,2,22,0.01
2013-10-16,74,64,54,63,59,53,97,84,62,30.17,30.04,9,1,9,0.04
2013-10-17,72,66,62,67,63,60,100,90,70,30.06,29.95,15,2,22,0.09
2013-10-18,71,63,57,67,58,51,100,85,60,30.13,29.98,12,1,18,0.01
2013-10-19,65,60,55,63,58,54,100,92,76,30.06,29.93,9,0,9,0.03
2013-10-20,65,54,46,54,46,40,100,77,43,30.17,30.00,12,2,15,0.01
2013-10-21,69,55,42,54,48,42,100,82,52,30.23,30.08,12,1,12,0.01
2013-10-22,72,61,56,59,56,53,100,85,54,30.10,29.88,15,1,15,0.03
2013-10-23,68,58,45,59,45,31,100,68,34,30.10,29.80,30,7,30,0.04
2013-10-24,60,48,36,43,36,32,89,67,42,30.25,30.10,18,2,18,0.01
2013-10-25,53,47,41,42,34,28,78,61,40,30.43,30.24,22,4,22,0.00
2013-10-26,58,44,30,38,32,27,90,65,36,30.43,30.14,18,3,18,0.00
2013-10-27,68,54,42,49,42,38,91,65,45,30.22,30.12,15,2,15,0.00
2013-10-28,68,56,48,55,51,46,100,83,62,30.34,30.17,9,0,9,0.00
2013-10-29,74,60,52,58,54,51,100,81,51,30.41,30.30,30,1,30,0.14
2013-10-30,77,64,53,59,56,52,100,78,50,30.36,30.24,18,2,18,0.01
2013-10-31,73,65,58,65,58,55,94,79,62,30.25,29.98,24,4,24,0.81
2013-11-1,70,65,60,67,63,59,100,92,78,29.99,29.77,30,8,30,0.65
2013-11-2,73,58,50,60,50,41,100,78,38,30.05,29.81,33,3,33,0.01
2013-11-3,64,51,43,42,38,34,86,64,37,30.42,30.05,28,5,28,0.00
2013-11-4,61,48,38,38,35,26,93,65,26,30.58,30.42,18,4,18,0.00
2013-11-5,58,48,38,48,40,32,86,74,58,30.62,30.49,22,4,22,0.00
2013-11-6,70,59,50,56,51,47,96,79,53,30.49,30.20,18,3,18,0.00
2013-11-7,69,58,49,61,51,33,100,81,43,30.20,30.03,30,5,30,0.00
2013-11-8,59,47,37,35,29,21,81,53,24,30.39,30.19,22,5,22,0.00
2013-11-9,60,46,31,36,31,25,89,60,28,30.42,30.27,18,3,18,0.00
2013-11-10,71,55,41,42,35,25,83,51,21,30.29,30.18,22,5,37,0.00
2013-11-11,61,50,38,34,28,23,72,46,25,30.42,30.24,18,4,24,0.00
2013-11-12,64,45,32,42,33,17,97,67,29,30.52,30.10,43,9,52,0.07
2013-11-13,45,34,26,23,17,11,76,52,25,30.60,30.50,24,6,24,0.03
2013-11-14,56,40,25,27,21,15,83,53,21,30.53,30.39,22,4,28,0.00
2013-11-15,60,47,33,49,36,23,100,67,47,30.40,30.26,12,3,12,0.11
2013-11-16,65,55,49,58,53,49,100,93,76,30.35,30.27,12,3,12,0.01
2013-11-17,71,61,52,66,58,51,100,93,67,30.27,29.98,30,5,30,0.07
2013-11-18,79,66,52,67,50,31,100,62,29,30.07,29.91,33,9,33,0.03
2013-11-19,56,48,41,32,26,20,63,44,26,30.34,30.06,39,8,39,0.00
2013-11-20,53,44,36,34,30,27,72,60,45,30.48,30.32,24,7,24,0.00
2013-11-21,59,50,43,46,40,33,75,68,58,30.55,30.44,22,6,22,0.00
2013-11-22,68,56,51,58,48,44,83,76,68,30.46,30.28,24,4,24,0.00
2013-11-23,61,54,47,49,33,22,65,45,33,30.22,30.13,18,7,24,0.00
2013-11-24,42,34,26,23,7,-2,49,32,19,30.59,30.26,43,11,43,0.00
2013-11-25,59,35,22,48,7,1,65,32,21,30.61,29.57,18,4,24,0.00
2013-11-26,44,38,32,44,31,8,100,83,27,29.85,29.12,33,6,33,2.82
2013-11-27,46,39,29,45,33,16,100,80,51,29.70,29.04,30,11,39,0.50
2013-11-28,29,25,23,17,16,15,74,66,59,29.80,29.70,9,4,12,0.00
2013-11-29,53,38,25,29,23,17,89,60,25,30.08,29.94,22,3,22,0.00
2013-11-30,48,36,28,27,24,21,78,62,39,30.11,29.85,22,6,22,0.00
2013-12-1,59,42,29,39,32,24,92,69,39,29.85,29.52,22,4,22,0.00
2013-12-2,58,45,31,41,36,30,100,74,48,29.52,29.31,15,3,15,0.00
2013-12-3,62,52,42,54,47,38,95,81,66,29.49,29.36,28,4,28,0.00
2013-12-4,62,56,52,60,56,50,100,97,89,29.60,29.47,12,3,15,1.26
2013-12-5,66,63,59,65,62,59,100,98,95,29.63,29.54,33,8,33,0.33
2013-12-6,77,70,65,66,64,62,100,82,64,29.58,29.48,55,15,55,0.00
2013-12-7,70,55,46,65,50,39,100,84,72,29.91,29.51,24,8,28,0.04
2013-12-8,46,38,34,38,34,33,97,87,70,29.93,29.76,22,6,22,0.10
2013-12-9,46,40,34,45,40,34,100,98,97,29.76,29.56,15,3,15,0.43
2013-12-10,52,45,31,49,40,23,100,85,54,29.83,29.41,28,6,28,0.14
2013-12-11,51,36,25,30,24,20,92,66,31,29.95,29.78,24,4,24,0.00
2013-12-12,48,36,30,27,19,8,85,53,21,29.90,29.77,30,6,30,0.00
2013-12-13,52,37,24,31,23,16,79,58,30,29.87,29.73,22,4,22,0.00
2013-12-14,46,42,38,45,37,30,99,86,66,30.15,29.60,22,3,22,0.07
2013-12-15,54,43,34,46,36,26,100,78,49,30.14,29.77,28,7,33,0.01
2013-12-16,59,43,29,35,30,25,86,63,34,30.21,30.12,22,5,22,0.00
2013-12-17,63,49,37,36,33,29,76,55,33,30.17,29.95,28,8,39,0.00
2013-12-18,53,43,33,28,19,12,62,42,20,30.32,30.08,24,6,24,0.00
2013-12-19,64,46,31,29,23,17,70,45,17,30.37,30.24,24,5,28,0.00
2013-12-20,65,53,42,52,43,29,89,69,51,30.29,30.17,28,4,33,0.00
2013-12-21,74,62,50,64,56,49,100,84,64,30.19,30.05,39,8,39,0.00
2013-12-22,72,67,63,69,65,31,100,92,82,30.13,30.04,229,14,229,0.97
2013-12-23,63,63,62,62,62,62,100,97,97,30.12,30.06,30,12,30,0.93
2013-12-24,48,42,35,36,28,13,73,59,30,30.37,30.20,28,11,28,0.00
2013-12-27,52,43,31,25,21,15,74,46,23,30.45,30.39,15,3,15,0.00
2013-12-28,56,41,26,37,28,21,86,62,34,30.44,30.15,18,2,18,0.00
2013-12-29,54,46,41,50,44,34,100,95,64,30.15,29.83,22,5,22,0.92
2013-12-30,54,44,36,48,40,31,100,85,52,30.14,29.90,12,1,15,0.00
2013-12-31,52,43,34,41,31,20,93,67,30,30.20,29.95,18,3,22,0.00
2014-1-1,50,39,30,32,28,25,83,65,43,30.23,30.00,15,3,15,0.00
2014-1-2,50,44,39,46,40,32,100,87,76,30.00,29.49,15,4,22,0.24